sensor_id;sensor_type;location;lat;lon;timestamp;temperature;humidity
55436;DHT22;41307;53.142;6.430;2023-06-14T00:01:55;16.30;78.00
55436;DHT22;41307;53.142;6.430;2023-06-14T00:04:21;16.30;78.60
55436;DHT22;41307;53.142;6.430;2023-06-14T00:06:47;16.30;79.00
55436;DHT22;41307;53.142;6.430;2023-06-14T00:09:14;16.20;79.30
55436;DHT22;41307;53.142;6.430;2023-06-14T00:11:41;16.20;79.80
55436;DHT22;41307;53.142;6.430;2023-06-14T00:14:07;16.20;80.50
55436;DHT22;41307;53.142;6.430;2023-06-14T00:16:33;16.10;80.70
55436;DHT22;41307;53.142;6.430;2023-06-14T00:19:03;16.10;81.60
55436;DHT22;41307;53.142;6.430;2023-06-14T00:21:30;16.00;82.20
55436;DHT22;41307;53.142;6.430;2023-06-14T00:23:57;16.00;84.00
55436;DHT22;41307;53.142;6.430;2023-06-14T00:26:23;16.00;84.20
55436;DHT22;41307;53.142;6.430;2023-06-14T00:28:49;16.00;85.30
55436;DHT22;41307;53.142;6.430;2023-06-14T00:31:15;15.90;85.90
55436;DHT22;41307;53.142;6.430;2023-06-14T00:33:41;15.90;86.40
55436;DHT22;41307;53.142;6.430;2023-06-14T00:36:06;15.90;86.90
55436;DHT22;41307;53.142;6.430;2023-06-14T00:38:32;15.80;88.00
55436;DHT22;41307;53.142;6.430;2023-06-14T00:40:58;15.80;89.20
55436;DHT22;41307;53.142;6.430;2023-06-14T00:43:23;15.80;90.20
55436;DHT22;41307;53.142;6.430;2023-06-14T00:45:49;15.80;91.20
55436;DHT22;41307;53.142;6.430;2023-06-14T00:48:17;15.50;91.60
55436;DHT22;41307;53.142;6.430;2023-06-14T00:50:43;15.70;92.30
55436;DHT22;41307;53.142;6.430;2023-06-14T00:53:12;15.70;93.10
55436;DHT22;41307;53.142;6.430;2023-06-14T00:55:38;15.70;93.60
55436;DHT22;41307;53.142;6.430;2023-06-14T00:58:04;15.60;94.90
55436;DHT22;41307;53.142;6.430;2023-06-14T01:00:30;15.60;95.70
55436;DHT22;41307;53.142;6.430;2023-06-14T01:02:55;15.70;96.60
55436;DHT22;41307;53.142;6.430;2023-06-14T01:05:22;15.60;97.60
55436;DHT22;41307;53.142;6.430;2023-06-14T01:07:59;15.60;98.90
55436;DHT22;41307;53.142;6.430;2023-06-14T01:10:49;15.60;99.10
55436;DHT22;41307;53.142;6.430;2023-06-14T01:13:32;15.50;99.90
55436;DHT22;41307;53.142;6.430;2023-06-14T01:15:59;15.50;99.90
55436;DHT22;41307;53.142;6.430;2023-06-14T01:18:24;15.50;99.90
55436;DHT22;41307;53.142;6.430;2023-06-14T01:20:51;15.40;99.90
55436;DHT22;41307;53.142;6.430;2023-06-14T01:23:22;15.40;99.90
55436;DHT22;41307;53.142;6.430;2023-06-14T01:25:49;15.30;99.90
55436;DHT22;41307;53.142;6.430;2023-06-14T01:28:19;15.30;99.90
55436;DHT22;41307;53.142;6.430;2023-06-14T01:30:49;15.30;99.90
55436;DHT22;41307;53.142;6.430;2023-06-14T01:33:22;15.20;99.90
55436;DHT22;41307;53.142;6.430;2023-06-14T01:35:53;15.20;99.90
55436;DHT22;41307;53.142;6.430;2023-06-14T01:38:23;15.20;99.90
55436;DHT22;41307;53.142;6.430;2023-06-14T01:40:50;15.10;99.90
55436;DHT22;41307;53.142;6.430;2023-06-14T01:43:18;15.10;99.90
55436;DHT22;41307;53.142;6.430;2023-06-14T01:45:46;15.10;99.90
55436;DHT22;41307;53.142;6.430;2023-06-14T01:48:13;15.00;99.90
55436;DHT22;41307;53.142;6.430;2023-06-14T01:50:39;15.00;99.90
55436;DHT22;41307;53.142;6.430;2023-06-14T01:53:08;15.00;99.90
55436;DHT22;41307;53.142;6.430;2023-06-14T01:55:34;14.90;99.90
55436;DHT22;41307;53.142;6.430;2023-06-14T01:58:03;14.90;99.90
55436;DHT22;41307;53.142;6.430;2023-06-14T02:00:30;14.80;99.90
55436;DHT22;41307;53.142;6.430;2023-06-14T02:02:55;14.80;99.90
55436;DHT22;41307;53.142;6.430;2023-06-14T02:05:21;14.80;99.90
55436;DHT22;41307;53.142;6.430;2023-06-14T02:07:47;14.80;99.90
55436;DHT22;41307;53.142;6.430;2023-06-14T02:10:13;14.80;99.90
55436;DHT22;41307;53.142;6.430;2023-06-14T02:12:40;14.70;99.90
55436;DHT22;41307;53.142;6.430;2023-06-14T02:15:06;14.70;99.90
55436;DHT22;41307;53.142;6.430;2023-06-14T02:17:32;14.70;99.90
55436;DHT22;41307;53.142;6.430;2023-06-14T02:19:58;14.70;99.90
55436;DHT22;41307;53.142;6.430;2023-06-14T02:22:25;14.60;99.90
55436;DHT22;41307;53.142;6.430;2023-06-14T02:24:50;14.60;99.90
55436;DHT22;41307;53.142;6.430;2023-06-14T02:27:17;14.60;99.90
55436;DHT22;41307;53.142;6.430;2023-06-14T02:29:43;14.60;99.90
55436;DHT22;41307;53.142;6.430;2023-06-14T02:32:08;14.50;99.90
55436;DHT22;41307;53.142;6.430;2023-06-14T02:34:34;14.50;99.90
55436;DHT22;41307;53.142;6.430;2023-06-14T02:37:01;14.50;99.90
55436;DHT22;41307;53.142;6.430;2023-06-14T02:39:29;14.50;99.90
55436;DHT22;41307;53.142;6.430;2023-06-14T02:41:54;14.50;99.90
55436;DHT22;41307;53.142;6.430;2023-06-14T02:44:25;14.40;99.90
55436;DHT22;41307;53.142;6.430;2023-06-14T02:46:56;14.50;99.90
55436;DHT22;41307;53.142;6.430;2023-06-14T02:49:24;14.50;99.90
55436;DHT22;41307;53.142;6.430;2023-06-14T02:51:50;14.40;99.90
55436;DHT22;41307;53.142;6.430;2023-06-14T02:54:16;14.40;99.90
55436;DHT22;41307;53.142;6.430;2023-06-14T02:56:42;14.40;99.90
55436;DHT22;41307;53.142;6.430;2023-06-14T02:59:07;14.40;99.90
55436;DHT22;41307;53.142;6.430;2023-06-14T03:01:34;14.30;99.90
55436;DHT22;41307;53.142;6.430;2023-06-14T03:04:01;14.30;99.90
55436;DHT22;41307;53.142;6.430;2023-06-14T03:06:31;14.30;99.90
55436;DHT22;41307;53.142;6.430;2023-06-14T03:08:57;14.30;99.90
55436;DHT22;41307;53.142;6.430;2023-06-14T03:11:30;14.30;99.90
55436;DHT22;41307;53.142;6.430;2023-06-14T03:13:56;14.30;99.90
55436;DHT22;41307;53.142;6.430;2023-06-14T03:16:22;14.30;99.90
55436;DHT22;41307;53.142;6.430;2023-06-14T03:18:53;14.30;99.90
55436;DHT22;41307;53.142;6.430;2023-06-14T03:21:19;14.30;99.90
55436;DHT22;41307;53.142;6.430;2023-06-14T03:23:46;14.30;99.90
55436;DHT22;41307;53.142;6.430;2023-06-14T03:26:12;14.30;99.90
55436;DHT22;41307;53.142;6.430;2023-06-14T03:28:46;14.30;99.90
55436;DHT22;41307;53.142;6.430;2023-06-14T03:31:13;14.30;99.90
55436;DHT22;41307;53.142;6.430;2023-06-14T03:33:39;14.30;99.90
55436;DHT22;41307;53.142;6.430;2023-06-14T03:36:05;14.30;99.90
55436;DHT22;41307;53.142;6.430;2023-06-14T03:38:32;14.30;99.90
55436;DHT22;41307;53.142;6.430;2023-06-14T03:40:58;14.30;99.90
55436;DHT22;41307;53.142;6.430;2023-06-14T03:43:23;14.30;99.90
55436;DHT22;41307;53.142;6.430;2023-06-14T03:45:49;14.30;99.90
55436;DHT22;41307;53.142;6.430;2023-06-14T03:48:15;14.30;99.90
55436;DHT22;41307;53.142;6.430;2023-06-14T03:50:40;14.30;99.90
55436;DHT22;41307;53.142;6.430;2023-06-14T03:53:08;14.30;99.90
55436;DHT22;41307;53.142;6.430;2023-06-14T03:55:34;14.30;99.90
55436;DHT22;41307;53.142;6.430;2023-06-14T03:58:00;14.30;99.90
55436;DHT22;41307;53.142;6.430;2023-06-14T04:00:26;14.40;99.90
55436;DHT22;41307;53.142;6.430;2023-06-14T04:02:52;14.40;99.90
55436;DHT22;41307;53.142;6.430;2023-06-14T04:05:19;14.40;99.90
55436;DHT22;41307;53.142;6.430;2023-06-14T04:07:46;14.40;99.90
55436;DHT22;41307;53.142;6.430;2023-06-14T04:10:15;14.50;99.90
55436;DHT22;41307;53.142;6.430;2023-06-14T04:12:41;14.50;99.90
55436;DHT22;41307;53.142;6.430;2023-06-14T04:15:08;14.70;99.90
55436;DHT22;41307;53.142;6.430;2023-06-14T04:17:35;14.80;99.90
55436;DHT22;41307;53.142;6.430;2023-06-14T04:20:02;14.80;99.90
55436;DHT22;41307;53.142;6.430;2023-06-14T04:22:30;15.20;99.90
55436;DHT22;41307;53.142;6.430;2023-06-14T04:24:57;15.60;99.90
55436;DHT22;41307;53.142;6.430;2023-06-14T04:27:23;16.00;99.90
55436;DHT22;41307;53.142;6.430;2023-06-14T04:29:54;16.30;99.90
55436;DHT22;41307;53.142;6.430;2023-06-14T04:32:25;16.60;99.90
55436;DHT22;41307;53.142;6.430;2023-06-14T04:34:55;16.90;99.90
55436;DHT22;41307;53.142;6.430;2023-06-14T04:37:21;17.40;99.90
55436;DHT22;41307;53.142;6.430;2023-06-14T04:39:48;18.30;99.90
55436;DHT22;41307;53.142;6.430;2023-06-14T04:42:14;19.10;99.90
55436;DHT22;41307;53.142;6.430;2023-06-14T04:44:43;19.30;99.90
55436;DHT22;41307;53.142;6.430;2023-06-14T04:47:10;19.20;99.90
55436;DHT22;41307;53.142;6.430;2023-06-14T04:49:38;19.60;99.90
55436;DHT22;41307;53.142;6.430;2023-06-14T04:52:06;20.20;99.90
55436;DHT22;41307;53.142;6.430;2023-06-14T04:54:32;20.80;99.90
55436;DHT22;41307;53.142;6.430;2023-06-14T04:56:59;21.10;99.90
55436;DHT22;41307;53.142;6.430;2023-06-14T04:59:25;20.70;99.90
55436;DHT22;41307;53.142;6.430;2023-06-14T05:01:51;20.10;99.90
55436;DHT22;41307;53.142;6.430;2023-06-14T05:04:18;19.70;99.90
55436;DHT22;41307;53.142;6.430;2023-06-14T05:06:44;19.30;99.90
55436;DHT22;41307;53.142;6.430;2023-06-14T05:09:14;19.30;99.90
55436;DHT22;41307;53.142;6.430;2023-06-14T05:11:40;19.80;99.90
55436;DHT22;41307;53.142;6.430;2023-06-14T05:14:11;20.40;99.90
55436;DHT22;41307;53.142;6.430;2023-06-14T05:16:37;21.10;99.90
55436;DHT22;41307;53.142;6.430;2023-06-14T05:19:03;21.50;99.90
55436;DHT22;41307;53.142;6.430;2023-06-14T05:21:32;22.50;99.90
55436;DHT22;41307;53.142;6.430;2023-06-14T05:24:00;22.80;98.60
55436;DHT22;41307;53.142;6.430;2023-06-14T05:26:26;23.50;97.30
55436;DHT22;41307;53.142;6.430;2023-06-14T05:28:56;23.80;94.90
55436;DHT22;41307;53.142;6.430;2023-06-14T05:31:23;24.00;93.60
55436;DHT22;41307;53.142;6.430;2023-06-14T05:33:50;24.20;91.20
55436;DHT22;41307;53.142;6.430;2023-06-14T05:36:16;24.60;90.70
55436;DHT22;41307;53.142;6.430;2023-06-14T05:38:42;25.00;90.30
55436;DHT22;41307;53.142;6.430;2023-06-14T05:41:07;25.30;89.30
55436;DHT22;41307;53.142;6.430;2023-06-14T05:43:33;25.90;87.80
55436;DHT22;41307;53.142;6.430;2023-06-14T05:45:59;25.80;85.20
55436;DHT22;41307;53.142;6.430;2023-06-14T05:48:25;25.80;84.30
55436;DHT22;41307;53.142;6.430;2023-06-14T05:50:50;25.60;81.20
55436;DHT22;41307;53.142;6.430;2023-06-14T05:53:16;25.70;81.90
55436;DHT22;41307;53.142;6.430;2023-06-14T05:55:42;26.20;81.70
55436;DHT22;41307;53.142;6.430;2023-06-14T05:58:07;26.20;77.50
55436;DHT22;41307;53.142;6.430;2023-06-14T06:00:33;26.50;78.50
55436;DHT22;41307;53.142;6.430;2023-06-14T06:03:00;26.70;75.80
55436;DHT22;41307;53.142;6.430;2023-06-14T06:05:26;26.90;76.40
55436;DHT22;41307;53.142;6.430;2023-06-14T06:07:52;27.10;75.70
55436;DHT22;41307;53.142;6.430;2023-06-14T06:10:18;27.30;74.30
55436;DHT22;41307;53.142;6.430;2023-06-14T06:12:43;27.40;73.30
55436;DHT22;41307;53.142;6.430;2023-06-14T06:15:09;27.40;72.30
55436;DHT22;41307;53.142;6.430;2023-06-14T06:17:38;27.50;72.10
55436;DHT22;41307;53.142;6.430;2023-06-14T06:20:05;27.60;71.20
55436;DHT22;41307;53.142;6.430;2023-06-14T06:22:36;27.70;70.50
55436;DHT22;41307;53.142;6.430;2023-06-14T06:25:02;27.50;69.80
55436;DHT22;41307;53.142;6.430;2023-06-14T06:27:28;27.60;70.00
55436;DHT22;41307;53.142;6.430;2023-06-14T06:29:54;27.40;68.40
55436;DHT22;41307;53.142;6.430;2023-06-14T06:32:19;27.50;68.70
55436;DHT22;41307;53.142;6.430;2023-06-14T06:34:45;27.50;67.20
55436;DHT22;41307;53.142;6.430;2023-06-14T06:37:11;27.80;67.10
55436;DHT22;41307;53.142;6.430;2023-06-14T06:39:37;27.90;67.10
55436;DHT22;41307;53.142;6.430;2023-06-14T06:42:03;28.20;66.50
55436;DHT22;41307;53.142;6.430;2023-06-14T06:44:28;28.60;64.10
55436;DHT22;41307;53.142;6.430;2023-06-14T06:46:54;28.50;65.40
55436;DHT22;41307;53.142;6.430;2023-06-14T06:49:20;28.90;65.00
55436;DHT22;41307;53.142;6.430;2023-06-14T06:52:00;28.90;63.50
55436;DHT22;41307;53.142;6.430;2023-06-14T06:54:27;29.00;61.50
55436;DHT22;41307;53.142;6.430;2023-06-14T06:56:53;28.60;63.30
55436;DHT22;41307;53.142;6.430;2023-06-14T06:59:19;28.50;63.30
55436;DHT22;41307;53.142;6.430;2023-06-14T07:01:45;28.90;63.30
55436;DHT22;41307;53.142;6.430;2023-06-14T07:04:11;29.30;62.10
55436;DHT22;41307;53.142;6.430;2023-06-14T07:06:37;28.90;61.90
55436;DHT22;41307;53.142;6.430;2023-06-14T07:09:03;28.40;61.90
55436;DHT22;41307;53.142;6.430;2023-06-14T07:11:30;28.30;61.50
55436;DHT22;41307;53.142;6.430;2023-06-14T07:13:56;28.50;62.50
55436;DHT22;41307;53.142;6.430;2023-06-14T07:16:22;28.30;61.70
55436;DHT22;41307;53.142;6.430;2023-06-14T07:18:48;28.40;61.40
55436;DHT22;41307;53.142;6.430;2023-06-14T07:21:14;28.50;61.30
55436;DHT22;41307;53.142;6.430;2023-06-14T07:23:40;28.60;61.80
55436;DHT22;41307;53.142;6.430;2023-06-14T07:26:06;28.80;60.90
55436;DHT22;41307;53.142;6.430;2023-06-14T07:28:32;28.50;60.50
55436;DHT22;41307;53.142;6.430;2023-06-14T07:30:57;28.90;60.50
55436;DHT22;41307;53.142;6.430;2023-06-14T07:33:23;28.90;58.80
55436;DHT22;41307;53.142;6.430;2023-06-14T07:35:49;28.80;59.80
55436;DHT22;41307;53.142;6.430;2023-06-14T07:38:15;28.70;59.00
55436;DHT22;41307;53.142;6.430;2023-06-14T07:40:41;28.80;59.80
55436;DHT22;41307;53.142;6.430;2023-06-14T07:43:06;28.80;59.60
55436;DHT22;41307;53.142;6.430;2023-06-14T07:45:32;28.60;59.40
55436;DHT22;41307;53.142;6.430;2023-06-14T07:47:58;28.60;59.30
55436;DHT22;41307;53.142;6.430;2023-06-14T07:50:23;28.80;59.30
55436;DHT22;41307;53.142;6.430;2023-06-14T07:52:49;28.70;58.70
55436;DHT22;41307;53.142;6.430;2023-06-14T07:55:15;28.90;58.80
55436;DHT22;41307;53.142;6.430;2023-06-14T07:57:41;28.90;58.20
55436;DHT22;41307;53.142;6.430;2023-06-14T08:00:08;28.80;57.90
55436;DHT22;41307;53.142;6.430;2023-06-14T08:02:36;28.70;58.60
55436;DHT22;41307;53.142;6.430;2023-06-14T08:05:02;28.80;58.10
55436;DHT22;41307;53.142;6.430;2023-06-14T08:07:28;28.80;57.80
55436;DHT22;41307;53.142;6.430;2023-06-14T08:09:54;28.60;57.90
55436;DHT22;41307;53.142;6.430;2023-06-14T08:12:19;28.80;58.40
55436;DHT22;41307;53.142;6.430;2023-06-14T08:14:45;29.20;58.50
55436;DHT22;41307;53.142;6.430;2023-06-14T08:17:11;28.90;57.20
55436;DHT22;41307;53.142;6.430;2023-06-14T08:19:36;29.20;58.00
55436;DHT22;41307;53.142;6.430;2023-06-14T08:22:02;29.60;58.10
55436;DHT22;41307;53.142;6.430;2023-06-14T08:24:29;29.40;57.40
55436;DHT22;41307;53.142;6.430;2023-06-14T08:26:54;29.20;56.60
55436;DHT22;41307;53.142;6.430;2023-06-14T08:29:22;29.10;57.20
55436;DHT22;41307;53.142;6.430;2023-06-14T08:31:47;29.30;58.00
55436;DHT22;41307;53.142;6.430;2023-06-14T08:34:13;29.50;57.40
55436;DHT22;41307;53.142;6.430;2023-06-14T08:36:39;29.50;57.00
55436;DHT22;41307;53.142;6.430;2023-06-14T08:39:05;29.50;56.90
55436;DHT22;41307;53.142;6.430;2023-06-14T08:41:31;29.30;56.60
55436;DHT22;41307;53.142;6.430;2023-06-14T08:43:58;29.80;57.40
55436;DHT22;41307;53.142;6.430;2023-06-14T08:46:25;30.00;57.50
55436;DHT22;41307;53.142;6.430;2023-06-14T08:48:55;30.00;56.40
55436;DHT22;41307;53.142;6.430;2023-06-14T08:51:22;29.40;56.60
55436;DHT22;41307;53.142;6.430;2023-06-14T08:53:54;29.50;57.50
55436;DHT22;41307;53.142;6.430;2023-06-14T08:56:25;29.50;56.90
55436;DHT22;41307;53.142;6.430;2023-06-14T08:58:51;29.10;56.40
55436;DHT22;41307;53.142;6.430;2023-06-14T09:01:18;29.20;56.50
55436;DHT22;41307;53.142;6.430;2023-06-14T09:03:44;29.20;56.40
55436;DHT22;41307;53.142;6.430;2023-06-14T09:06:11;29.20;56.70
55436;DHT22;41307;53.142;6.430;2023-06-14T09:08:43;29.30;56.50
55436;DHT22;41307;53.142;6.430;2023-06-14T09:11:16;29.10;56.10
55436;DHT22;41307;53.142;6.430;2023-06-14T09:13:48;28.90;55.60
55436;DHT22;41307;53.142;6.430;2023-06-14T09:16:14;28.80;55.80
55436;DHT22;41307;53.142;6.430;2023-06-14T09:18:47;28.80;56.30
55436;DHT22;41307;53.142;6.430;2023-06-14T09:21:16;28.90;56.50
55436;DHT22;41307;53.142;6.430;2023-06-14T09:23:45;29.00;57.00
55436;DHT22;41307;53.142;6.430;2023-06-14T09:26:18;29.00;56.70
55436;DHT22;41307;53.142;6.430;2023-06-14T09:28:49;28.80;56.60
55436;DHT22;41307;53.142;6.430;2023-06-14T09:31:17;28.70;56.50
55436;DHT22;41307;53.142;6.430;2023-06-14T09:33:47;28.90;56.90
55436;DHT22;41307;53.142;6.430;2023-06-14T09:36:18;29.00;56.40
55436;DHT22;41307;53.142;6.430;2023-06-14T09:38:58;28.90;56.10
55436;DHT22;41307;53.142;6.430;2023-06-14T09:41:37;28.90;56.00
55436;DHT22;41307;53.142;6.430;2023-06-14T09:44:05;28.70;56.30
55436;DHT22;41307;53.142;6.430;2023-06-14T09:46:31;28.70;56.10
55436;DHT22;41307;53.142;6.430;2023-06-14T09:48:58;28.50;56.20
55436;DHT22;41307;53.142;6.430;2023-06-14T09:51:24;28.80;56.70
55436;DHT22;41307;53.142;6.430;2023-06-14T09:53:50;28.70;56.10
55436;DHT22;41307;53.142;6.430;2023-06-14T09:58:55;28.90;55.50
55436;DHT22;41307;53.142;6.430;2023-06-14T10:01:22;28.60;54.70
55436;DHT22;41307;53.142;6.430;2023-06-14T10:03:55;28.40;55.60
55436;DHT22;41307;53.142;6.430;2023-06-14T10:06:23;28.20;56.30
55436;DHT22;41307;53.142;6.430;2023-06-14T10:08:55;28.20;56.10
55436;DHT22;41307;53.142;6.430;2023-06-14T10:11:22;27.90;56.10
55436;DHT22;41307;53.142;6.430;2023-06-14T10:13:48;28.00;56.60
55436;DHT22;41307;53.142;6.430;2023-06-14T10:16:21;28.00;56.70
55436;DHT22;41307;53.142;6.430;2023-06-14T10:19:11;28.10;57.00
55436;DHT22;41307;53.142;6.430;2023-06-14T10:22:00;28.00;56.30
55436;DHT22;41307;53.142;6.430;2023-06-14T10:24:33;27.90;56.20
55436;DHT22;41307;53.142;6.430;2023-06-14T10:27:01;27.90;56.20
55436;DHT22;41307;53.142;6.430;2023-06-14T10:29:28;27.90;55.60
55436;DHT22;41307;53.142;6.430;2023-06-14T10:31:59;28.00;55.70
55436;DHT22;41307;53.142;6.430;2023-06-14T10:34:29;28.00;56.20
55436;DHT22;41307;53.142;6.430;2023-06-14T10:37:12;28.10;56.50
55436;DHT22;41307;53.142;6.430;2023-06-14T10:39:43;28.30;57.30
55436;DHT22;41307;53.142;6.430;2023-06-14T10:42:12;28.50;55.90
55436;DHT22;41307;53.142;6.430;2023-06-14T10:44:49;28.50;55.20
55436;DHT22;41307;53.142;6.430;2023-06-14T10:49:51;28.20;55.60
55436;DHT22;41307;53.142;6.430;2023-06-14T10:52:22;27.90;54.50
55436;DHT22;41307;53.142;6.430;2023-06-14T10:55:08;27.90;55.40
55436;DHT22;41307;53.142;6.430;2023-06-14T10:57:38;28.10;55.90
55436;DHT22;41307;53.142;6.430;2023-06-14T11:00:06;28.00;55.50
55436;DHT22;41307;53.142;6.430;2023-06-14T11:05:54;28.20;57.60
55436;DHT22;41307;53.142;6.430;2023-06-14T11:11:00;28.10;55.20
55436;DHT22;41307;53.142;6.430;2023-06-14T11:13:31;28.40;55.90
55436;DHT22;41307;53.142;6.430;2023-06-14T11:15:57;28.50;56.10
55436;DHT22;41307;53.142;6.430;2023-06-14T11:18:23;28.50;55.50
55436;DHT22;41307;53.142;6.430;2023-06-14T11:20:50;28.50;55.60
55436;DHT22;41307;53.142;6.430;2023-06-14T11:23:16;28.50;55.70
55436;DHT22;41307;53.142;6.430;2023-06-14T11:25:42;28.40;56.20
55436;DHT22;41307;53.142;6.430;2023-06-14T11:28:08;28.20;56.10
55436;DHT22;41307;53.142;6.430;2023-06-14T11:30:33;28.20;56.80
55436;DHT22;41307;53.142;6.430;2023-06-14T11:32:59;28.20;55.80
55436;DHT22;41307;53.142;6.430;2023-06-14T11:35:26;28.10;55.10
55436;DHT22;41307;53.142;6.430;2023-06-14T11:37:56;28.20;55.30
55436;DHT22;41307;53.142;6.430;2023-06-14T11:40:26;28.10;55.00
55436;DHT22;41307;53.142;6.430;2023-06-14T11:43:00;28.30;54.80
55436;DHT22;41307;53.142;6.430;2023-06-14T11:45:27;28.30;54.60
55436;DHT22;41307;53.142;6.430;2023-06-14T11:47:55;28.10;54.40
55436;DHT22;41307;53.142;6.430;2023-06-14T11:50:24;27.80;54.50
55436;DHT22;41307;53.142;6.430;2023-06-14T11:52:58;27.80;54.60
55436;DHT22;41307;53.142;6.430;2023-06-14T11:55:39;27.90;54.60
55436;DHT22;41307;53.142;6.430;2023-06-14T11:58:06;27.70;54.30
55436;DHT22;41307;53.142;6.430;2023-06-14T12:00:32;27.60;54.40
55436;DHT22;41307;53.142;6.430;2023-06-14T12:03:00;27.50;54.60
55436;DHT22;41307;53.142;6.430;2023-06-14T12:05:26;27.50;54.70
55436;DHT22;41307;53.142;6.430;2023-06-14T12:08:00;27.30;54.60
55436;DHT22;41307;53.142;6.430;2023-06-14T12:10:27;27.50;54.70
55436;DHT22;41307;53.142;6.430;2023-06-14T12:12:59;27.80;55.40
55436;DHT22;41307;53.142;6.430;2023-06-14T12:15:28;27.70;54.60
55436;DHT22;41307;53.142;6.430;2023-06-14T12:17:55;27.50;54.40
55436;DHT22;41307;53.142;6.430;2023-06-14T12:20:20;27.40;54.70
55436;DHT22;41307;53.142;6.430;2023-06-14T12:22:57;27.50;55.00
55436;DHT22;41307;53.142;6.430;2023-06-14T12:25:31;27.40;55.10
55436;DHT22;41307;53.142;6.430;2023-06-14T12:27:59;27.60;55.20
55436;DHT22;41307;53.142;6.430;2023-06-14T12:30:25;27.50;55.20
55436;DHT22;41307;53.142;6.430;2023-06-14T12:32:51;27.60;55.40
55436;DHT22;41307;53.142;6.430;2023-06-14T12:35:17;27.30;54.90
55436;DHT22;41307;53.142;6.430;2023-06-14T12:37:45;27.50;55.20
55436;DHT22;41307;53.142;6.430;2023-06-14T12:40:11;27.20;55.20
55436;DHT22;41307;53.142;6.430;2023-06-14T12:42:37;27.20;55.50
55436;DHT22;41307;53.142;6.430;2023-06-14T12:45:03;27.20;56.30
55436;DHT22;41307;53.142;6.430;2023-06-14T12:47:29;27.10;55.60
55436;DHT22;41307;53.142;6.430;2023-06-14T12:49:55;27.10;55.60
55436;DHT22;41307;53.142;6.430;2023-06-14T12:52:21;27.20;55.80
55436;DHT22;41307;53.142;6.430;2023-06-14T12:54:47;27.30;55.70
55436;DHT22;41307;53.142;6.430;2023-06-14T12:57:12;27.20;55.60
55436;DHT22;41307;53.142;6.430;2023-06-14T12:59:38;27.00;55.60
55436;DHT22;41307;53.142;6.430;2023-06-14T13:02:15;27.10;56.30
55436;DHT22;41307;53.142;6.430;2023-06-14T13:04:41;27.20;56.80
55436;DHT22;41307;53.142;6.430;2023-06-14T13:07:07;27.20;55.60
55436;DHT22;41307;53.142;6.430;2023-06-14T13:09:33;27.30;55.90
55436;DHT22;41307;53.142;6.430;2023-06-14T13:11:58;27.30;55.70
55436;DHT22;41307;53.142;6.430;2023-06-14T13:14:24;27.20;55.60
55436;DHT22;41307;53.142;6.430;2023-06-14T13:16:50;27.00;55.40
55436;DHT22;41307;53.142;6.430;2023-06-14T13:19:15;26.90;55.40
55436;DHT22;41307;53.142;6.430;2023-06-14T13:21:41;26.70;55.80
55436;DHT22;41307;53.142;6.430;2023-06-14T13:24:07;26.50;55.90
55436;DHT22;41307;53.142;6.430;2023-06-14T13:26:34;26.40;56.10
55436;DHT22;41307;53.142;6.430;2023-06-14T13:28:59;26.50;56.60
55436;DHT22;41307;53.142;6.430;2023-06-14T13:31:25;26.50;56.30
55436;DHT22;41307;53.142;6.430;2023-06-14T13:33:51;26.50;56.00
55436;DHT22;41307;53.142;6.430;2023-06-14T13:36:17;26.60;56.00
55436;DHT22;41307;53.142;6.430;2023-06-14T13:38:42;26.60;56.20
55436;DHT22;41307;53.142;6.430;2023-06-14T13:41:08;26.60;55.90
55436;DHT22;41307;53.142;6.430;2023-06-14T13:43:34;26.30;55.90
55436;DHT22;41307;53.142;6.430;2023-06-14T13:46:00;26.20;56.10
55436;DHT22;41307;53.142;6.430;2023-06-14T13:48:26;26.30;56.50
55436;DHT22;41307;53.142;6.430;2023-06-14T13:50:51;26.50;56.80
55436;DHT22;41307;53.142;6.430;2023-06-14T13:53:17;26.60;56.50
55436;DHT22;41307;53.142;6.430;2023-06-14T13:55:43;26.70;56.60
55436;DHT22;41307;53.142;6.430;2023-06-14T13:58:09;26.80;56.50
55436;DHT22;41307;53.142;6.430;2023-06-14T14:00:35;26.70;56.00
55436;DHT22;41307;53.142;6.430;2023-06-14T14:03:06;26.70;56.40
55436;DHT22;41307;53.142;6.430;2023-06-14T14:05:31;26.60;56.10
55436;DHT22;41307;53.142;6.430;2023-06-14T14:07:57;26.80;56.30
55436;DHT22;41307;53.142;6.430;2023-06-14T14:10:24;26.80;56.30
55436;DHT22;41307;53.142;6.430;2023-06-14T14:12:51;26.90;56.00
55436;DHT22;41307;53.142;6.430;2023-06-14T14:15:17;26.80;56.20
55436;DHT22;41307;53.142;6.430;2023-06-14T14:17:43;26.80;56.30
55436;DHT22;41307;53.142;6.430;2023-06-14T14:20:09;26.60;56.10
55436;DHT22;41307;53.142;6.430;2023-06-14T14:22:37;26.50;56.10
55436;DHT22;41307;53.142;6.430;2023-06-14T14:25:02;26.50;56.20
55436;DHT22;41307;53.142;6.430;2023-06-14T14:27:28;26.60;56.10
55436;DHT22;41307;53.142;6.430;2023-06-14T14:29:54;26.80;55.80
55436;DHT22;41307;53.142;6.430;2023-06-14T14:32:20;26.80;55.90
55436;DHT22;41307;53.142;6.430;2023-06-14T14:34:45;26.80;55.60
55436;DHT22;41307;53.142;6.430;2023-06-14T14:37:11;26.70;55.50
55436;DHT22;41307;53.142;6.430;2023-06-14T14:39:38;26.70;55.50
55436;DHT22;41307;53.142;6.430;2023-06-14T14:42:04;26.70;56.50
55436;DHT22;41307;53.142;6.430;2023-06-14T14:44:30;26.60;55.50
55436;DHT22;41307;53.142;6.430;2023-06-14T14:46:56;26.50;55.80
55436;DHT22;41307;53.142;6.430;2023-06-14T14:49:22;26.50;55.90
55436;DHT22;41307;53.142;6.430;2023-06-14T14:51:48;26.60;56.10
55436;DHT22;41307;53.142;6.430;2023-06-14T14:54:13;26.50;55.70
55436;DHT22;41307;53.142;6.430;2023-06-14T14:56:39;26.40;55.70
55436;DHT22;41307;53.142;6.430;2023-06-14T14:59:05;26.20;55.90
55436;DHT22;41307;53.142;6.430;2023-06-14T15:01:31;26.30;56.10
55436;DHT22;41307;53.142;6.430;2023-06-14T15:03:56;26.30;56.10
55436;DHT22;41307;53.142;6.430;2023-06-14T15:06:22;26.30;56.30
55436;DHT22;41307;53.142;6.430;2023-06-14T15:08:48;26.30;56.50
55436;DHT22;41307;53.142;6.430;2023-06-14T15:11:13;26.40;56.70
55436;DHT22;41307;53.142;6.430;2023-06-14T15:13:39;26.30;56.50
55436;DHT22;41307;53.142;6.430;2023-06-14T15:16:05;26.10;56.40
55436;DHT22;41307;53.142;6.430;2023-06-14T15:18:31;25.90;56.90
55436;DHT22;41307;53.142;6.430;2023-06-14T15:20:56;25.80;57.30
55436;DHT22;41307;53.142;6.430;2023-06-14T15:23:22;25.70;57.30
55436;DHT22;41307;53.142;6.430;2023-06-14T15:25:48;25.60;57.30
55436;DHT22;41307;53.142;6.430;2023-06-14T15:28:14;25.60;57.60
55436;DHT22;41307;53.142;6.430;2023-06-14T15:30:40;25.60;57.50
55436;DHT22;41307;53.142;6.430;2023-06-14T15:33:06;25.80;57.60
55436;DHT22;41307;53.142;6.430;2023-06-14T15:35:32;26.00;57.40
55436;DHT22;41307;53.142;6.430;2023-06-14T15:37:58;26.00;57.10
55436;DHT22;41307;53.142;6.430;2023-06-14T15:40:23;26.10;57.30
55436;DHT22;41307;53.142;6.430;2023-06-14T15:42:49;26.10;57.20